createdAt,value
2018-03-24T00:02:02.200Z,13.30
2018-03-24T00:04:27.978Z,13.40
2018-03-24T00:06:53.707Z,14.63
2018-03-24T00:09:19.466Z,15.20
2018-03-24T00:11:45.189Z,14.07
2018-03-24T00:14:10.902Z,13.73
2018-03-24T00:16:36.627Z,13.20
2018-03-24T00:19:02.374Z,14.37
2018-03-24T00:21:28.094Z,13.50
2018-03-24T00:23:53.819Z,13.93
2018-03-24T00:26:19.521Z,14.27
2018-03-24T00:28:45.237Z,13.93
2018-03-24T00:31:11.006Z,13.53
2018-03-24T00:33:36.736Z,13.90
2018-03-24T00:36:02.450Z,13.50
2018-03-24T00:38:28.173Z,13.87
2018-03-24T00:40:54.325Z,13.60
2018-03-24T00:43:20.062Z,12.55
2018-03-24T00:45:45.802Z,13.60
2018-03-24T00:48:11.533Z,12.50
2018-03-24T00:50:37.270Z,12.70
2018-03-24T00:53:02.989Z,12.43
2018-03-24T00:55:28.709Z,13.30
2018-03-24T00:57:54.445Z,13.30
2018-03-24T01:00:20.181Z,11.77
2018-03-24T01:02:45.894Z,13.40
2018-03-24T01:05:11.626Z,11.80
2018-03-24T01:07:37.342Z,12.40
2018-03-24T01:10:03.072Z,12.43
2018-03-24T01:12:28.849Z,12.83
2018-03-24T01:14:54.541Z,12.30
2018-03-24T01:17:20.253Z,11.83
2018-03-24T01:19:45.979Z,11.77
2018-03-24T01:22:11.709Z,12.20
2018-03-24T01:24:37.446Z,11.43
2018-03-24T01:27:03.222Z,12.40
2018-03-24T01:29:28.957Z,11.63
2018-03-24T01:31:54.700Z,12.70
2018-03-24T01:34:20.426Z,12.70
2018-03-24T01:36:46.162Z,12.37
2018-03-24T01:39:11.877Z,11.63
2018-03-24T01:41:37.625Z,11.63
2018-03-24T01:44:03.366Z,10.93
2018-03-24T01:46:29.097Z,11.97
2018-03-24T01:48:54.838Z,11.33
2018-03-24T01:51:20.575Z,12.20
2018-03-24T01:53:53.323Z,10.93
2018-03-24T01:56:19.049Z,11.75
2018-03-24T01:58:44.774Z,11.37
2018-03-24T02:01:10.505Z,11.57
2018-03-24T02:03:36.230Z,11.37
2018-03-24T02:06:01.958Z,12.23
2018-03-24T02:08:27.738Z,11.33
2018-03-24T02:10:53.489Z,11.97
2018-03-24T02:13:19.246Z,11.53
2018-03-24T02:15:44.974Z,11.00
2018-03-24T02:18:10.699Z,11.40
2018-03-24T02:20:36.421Z,11.17
2018-03-24T02:23:02.154Z,11.33
2018-03-24T02:25:27.890Z,11.57
2018-03-24T02:27:53.637Z,10.57
2018-03-24T02:30:19.675Z,11.20
2018-03-24T02:32:45.410Z,11.20
2018-03-24T02:35:11.131Z,11.10
2018-03-24T02:37:36.863Z,11.37
2018-03-24T02:40:02.599Z,10.53
2018-03-24T02:42:28.321Z,10.63
2018-03-24T02:44:54.086Z,10.33
2018-03-24T02:47:19.777Z,9.40
2018-03-24T02:49:45.499Z,10.93
2018-03-24T02:52:11.229Z,10.00
2018-03-24T02:54:36.969Z,11.07
2018-03-24T02:57:02.690Z,10.83
2018-03-24T02:59:28.418Z,10.10
2018-03-24T03:01:54.144Z,10.63
2018-03-24T03:04:19.861Z,10.50
2018-03-24T03:06:45.570Z,10.57
2018-03-24T03:09:11.310Z,9.60
2018-03-24T03:11:37.020Z,10.30
2018-03-24T03:14:02.750Z,10.40
2018-03-24T03:16:28.470Z,9.60
2018-03-24T03:18:54.190Z,10.17
2018-03-24T03:21:19.902Z,9.77
2018-03-24T03:23:45.649Z,10.53
2018-03-24T03:26:11.374Z,10.30
2018-03-24T03:28:37.101Z,10.70
2018-03-24T03:33:56.542Z,11.12
2018-03-24T03:36:22.250Z,9.90
2018-03-24T03:38:47.974Z,9.83
2018-03-24T03:41:13.699Z,10.47
2018-03-24T03:43:39.417Z,10.10
2018-03-24T03:46:05.131Z,10.83
2018-03-24T03:48:30.865Z,10.43
2018-03-24T03:50:56.582Z,10.80
2018-03-24T03:53:22.297Z,10.07
2018-03-24T03:55:48.018Z,10.20
2018-03-24T03:58:13.755Z,10.07
2018-03-24T04:00:46.626Z,10.70
2018-03-24T04:03:12.350Z,10.65
2018-03-24T04:05:38.086Z,10.07
2018-03-24T04:08:03.796Z,10.33
2018-03-24T04:10:29.522Z,10.17
2018-03-24T04:12:55.242Z,10.13
2018-03-24T04:15:20.994Z,10.57
2018-03-24T04:17:46.701Z,10.50
2018-03-24T04:20:12.435Z,10.87
2018-03-24T04:22:38.148Z,10.00
2018-03-24T04:25:03.882Z,9.70
2018-03-24T04:27:29.610Z,9.97
2018-03-24T04:29:55.346Z,10.40
2018-03-24T04:32:21.066Z,10.27
2018-03-24T04:34:46.802Z,9.83
2018-03-24T04:37:12.530Z,10.30
2018-03-24T04:39:38.258Z,11.00
2018-03-24T04:42:03.987Z,10.97
2018-03-24T04:44:29.713Z,10.40
2018-03-24T04:46:55.450Z,10.40
2018-03-24T04:49:21.173Z,10.20
2018-03-24T04:51:46.930Z,10.60
2018-03-24T04:54:12.663Z,11.07
2018-03-24T04:56:38.401Z,10.27
2018-03-24T04:59:04.134Z,11.03
2018-03-24T05:01:29.859Z,11.23
2018-03-24T05:03:55.586Z,10.43
2018-03-24T05:06:21.337Z,10.77
2018-03-24T05:08:47.062Z,10.63
2018-03-24T05:11:12.802Z,11.07
2018-03-24T05:13:38.517Z,10.63
2018-03-24T05:16:04.259Z,10.87
2018-03-24T05:18:29.999Z,10.47
2018-03-24T05:20:55.742Z,10.73
2018-03-24T05:23:21.462Z,10.63
2018-03-24T05:25:47.202Z,11.37
2018-03-24T05:28:12.942Z,10.87
2018-03-24T05:30:38.658Z,11.37
2018-03-24T05:33:04.393Z,10.20
2018-03-24T05:35:30.120Z,11.57
2018-03-24T05:37:55.863Z,12.30
2018-03-24T05:40:21.586Z,11.13
2018-03-24T05:42:47.321Z,11.40
2018-03-24T05:45:13.046Z,10.97
2018-03-24T05:47:38.781Z,10.63
2018-03-24T05:50:04.509Z,11.50
2018-03-24T05:52:30.246Z,12.07
2018-03-24T05:54:55.977Z,12.07
2018-03-24T05:57:21.706Z,11.57
2018-03-24T05:59:47.429Z,11.53
2018-03-24T06:02:13.165Z,12.80
2018-03-24T06:04:38.878Z,11.90
2018-03-24T06:07:04.618Z,11.40
2018-03-24T06:09:30.349Z,11.70
2018-03-24T06:11:56.084Z,11.67
2018-03-24T06:14:21.813Z,11.93
2018-03-24T06:16:47.561Z,11.23
2018-03-24T06:19:13.286Z,11.97
2018-03-24T06:21:39.009Z,12.00
2018-03-24T06:24:04.763Z,11.30
2018-03-24T06:26:30.482Z,11.47
2018-03-24T06:28:56.231Z,12.40
2018-03-24T06:31:22.816Z,12.10
2018-03-24T06:33:48.562Z,12.20
2018-03-24T06:36:14.296Z,12.27
2018-03-24T06:38:40.042Z,12.63
2018-03-24T06:41:05.774Z,12.93
2018-03-24T06:43:31.506Z,12.73
2018-03-24T06:45:57.246Z,12.67
2018-03-24T06:48:22.994Z,12.70
2018-03-24T06:50:48.722Z,13.17
2018-03-24T06:53:14.457Z,12.13
2018-03-24T06:55:40.186Z,12.50
2018-03-24T06:58:05.926Z,12.77
2018-03-24T07:00:31.667Z,12.37
2018-03-24T07:02:57.398Z,12.70
2018-03-24T07:05:23.142Z,12.37
2018-03-24T07:07:48.910Z,12.70
2018-03-24T07:10:14.622Z,13.00
2018-03-24T07:12:40.353Z,12.70
2018-03-24T07:15:06.116Z,12.90
2018-03-24T07:17:31.845Z,12.43
2018-03-24T07:19:57.587Z,14.07
2018-03-24T07:22:23.319Z,13.77
2018-03-24T07:24:49.061Z,13.07
2018-03-24T07:27:14.783Z,12.63
2018-03-24T07:29:40.508Z,13.13
2018-03-24T07:32:06.223Z,13.07
2018-03-24T07:34:31.950Z,12.13
2018-03-24T07:36:57.683Z,13.43
2018-03-24T07:39:23.427Z,13.80
2018-03-24T07:41:49.179Z,13.33
2018-03-24T07:44:14.910Z,13.60
2018-03-24T07:46:40.630Z,13.40
2018-03-24T07:49:06.383Z,14.07
2018-03-24T07:51:32.126Z,14.93
2018-03-24T07:53:57.863Z,14.57
2018-03-24T07:56:23.598Z,14.97
2018-03-24T07:58:49.315Z,14.93
2018-03-24T08:01:15.058Z,14.63
2018-03-24T08:03:40.775Z,15.67
2018-03-24T08:06:06.518Z,15.23
2018-03-24T08:08:32.246Z,14.30
2018-03-24T08:10:57.977Z,13.57
2018-03-24T08:13:23.703Z,14.13
2018-03-24T08:15:49.437Z,14.07
2018-03-24T08:18:15.162Z,14.40
2018-03-24T08:20:40.901Z,13.97
2018-03-24T08:23:06.642Z,14.67
2018-03-24T08:25:32.377Z,14.37
2018-03-24T08:27:58.111Z,15.13
2018-03-24T08:30:23.894Z,14.83
2018-03-24T08:32:49.599Z,16.53
2018-03-24T08:35:15.338Z,17.23
2018-03-24T08:37:41.063Z,16.30
2018-03-24T08:40:06.802Z,15.40
2018-03-24T08:42:32.530Z,16.43
2018-03-24T08:44:58.269Z,15.43
2018-03-24T08:47:24.004Z,16.20
2018-03-24T08:49:49.742Z,16.67
2018-03-24T08:52:15.458Z,16.67
2018-03-24T08:54:41.202Z,17.27
2018-03-24T08:57:06.927Z,16.53
2018-03-24T08:59:32.641Z,16.07
2018-03-24T09:01:58.374Z,16.23
2018-03-24T09:04:24.103Z,17.00
2018-03-24T09:06:49.847Z,17.30
2018-03-24T09:09:15.567Z,16.67
2018-03-24T09:11:41.293Z,16.53
2018-03-24T09:14:07.018Z,17.50
2018-03-24T09:16:32.752Z,17.43
2018-03-24T09:18:58.502Z,17.30
2018-03-24T09:21:24.227Z,17.33
2018-03-24T09:23:49.964Z,16.60
2018-03-24T09:26:15.691Z,18.43
2018-03-24T09:28:41.410Z,17.33
2018-03-24T09:31:07.186Z,17.17
2018-03-24T09:33:32.922Z,17.40
2018-03-24T09:35:58.658Z,17.27
2018-03-24T09:38:24.385Z,17.73
2018-03-24T09:40:50.119Z,17.17
2018-03-24T09:43:15.842Z,17.83
2018-03-24T09:45:41.589Z,18.20
2018-03-24T09:48:07.325Z,17.47
2018-03-24T09:50:33.035Z,17.67
2018-03-24T09:52:58.774Z,18.87
2018-03-24T09:55:24.502Z,17.87
2018-03-24T09:57:50.244Z,18.43
2018-03-24T10:00:15.966Z,17.87
2018-03-24T10:02:41.706Z,18.83
2018-03-24T10:05:07.435Z,18.27
2018-03-24T10:07:33.178Z,18.60
2018-03-24T10:09:58.907Z,19.70
2018-03-24T10:12:24.634Z,19.73
2018-03-24T10:14:50.361Z,20.73
2018-03-24T10:17:16.087Z,20.17
2018-03-24T10:19:41.818Z,19.40
2018-03-24T10:25:13.007Z,18.50
2018-03-24T10:27:38.730Z,19.60
2018-03-24T10:30:04.468Z,21.07
2018-03-24T10:32:33.001Z,21.57
2018-03-24T10:35:04.786Z,24.43
2018-03-24T10:37:30.538Z,21.00
2018-03-24T10:39:56.262Z,20.50
2018-03-24T10:42:22.064Z,20.73
2018-03-24T10:44:47.866Z,22.57
2018-03-24T10:47:13.634Z,21.33
2018-03-24T10:49:39.364Z,21.20
2018-03-24T10:52:05.096Z,22.10
2018-03-24T10:54:30.814Z,23.03
2018-03-24T10:56:56.579Z,21.20
2018-03-24T10:59:22.301Z,22.13
2018-03-24T11:01:48.045Z,21.83
2018-03-24T11:04:13.813Z,22.07
2018-03-24T11:06:39.526Z,23.27
2018-03-24T11:09:05.250Z,24.53
2018-03-24T11:11:30.970Z,23.27
2018-03-24T11:13:56.723Z,24.47
2018-03-24T11:16:22.446Z,24.57
2018-03-24T11:18:48.181Z,24.50
2018-03-24T11:21:13.906Z,24.87
2018-03-24T11:23:39.639Z,25.07
2018-03-24T11:26:05.458Z,24.63
2018-03-24T11:28:31.222Z,25.63
2018-03-24T11:30:56.978Z,25.37
2018-03-24T11:33:22.716Z,24.57
2018-03-24T11:35:48.454Z,24.80
2018-03-24T11:38:14.201Z,26.03
2018-03-24T11:40:39.922Z,25.50
2018-03-24T11:43:05.666Z,24.77
2018-03-24T11:45:31.389Z,26.97
2018-03-24T11:47:57.134Z,24.30
2018-03-24T11:50:22.870Z,23.60
2018-03-24T11:52:48.599Z,26.07
2018-03-24T11:55:14.339Z,26.53
2018-03-24T11:57:40.062Z,26.13
2018-03-24T12:00:06.767Z,25.93
2018-03-24T12:02:32.494Z,26.03
2018-03-24T12:04:58.230Z,24.87
2018-03-24T12:07:23.955Z,24.60
2018-03-24T12:09:49.686Z,24.30
2018-03-24T12:12:15.402Z,25.27
2018-03-24T12:14:41.139Z,26.50
2018-03-24T12:17:06.919Z,25.30
2018-03-24T12:19:32.918Z,24.57
2018-03-24T12:21:58.653Z,24.37
2018-03-24T12:24:24.382Z,25.87
2018-03-24T12:26:50.101Z,24.23
2018-03-24T12:29:15.859Z,24.60
2018-03-24T12:31:41.606Z,24.80
2018-03-24T12:34:07.345Z,24.23
2018-03-24T12:36:33.210Z,25.13
2018-03-24T12:38:58.974Z,23.97
2018-03-24T12:41:25.813Z,24.13
2018-03-24T12:43:51.549Z,25.63
2018-03-24T12:46:17.286Z,24.40
2018-03-24T12:48:43.032Z,25.50
2018-03-24T12:51:08.765Z,25.07
2018-03-24T12:53:34.479Z,23.50
2018-03-24T12:56:00.218Z,23.47
2018-03-24T12:58:25.941Z,25.20
2018-03-24T13:00:51.675Z,25.67
2018-03-24T13:03:17.397Z,25.50
2018-03-24T13:05:43.145Z,25.93
2018-03-24T13:08:08.877Z,26.73
2018-03-24T13:10:34.618Z,24.47
2018-03-24T13:13:00.341Z,23.83
2018-03-24T13:15:26.085Z,24.33
2018-03-24T13:17:51.810Z,23.97
2018-03-24T13:20:17.565Z,23.83
2018-03-24T13:22:43.289Z,23.70
2018-03-24T13:25:09.085Z,24.50
2018-03-24T13:27:34.780Z,24.90
2018-03-24T13:30:00.513Z,25.67
2018-03-24T13:32:26.259Z,25.43
2018-03-24T13:34:51.990Z,26.10
2018-03-24T13:37:17.726Z,23.47
2018-03-24T13:39:43.445Z,25.57
2018-03-24T13:42:09.182Z,25.40
2018-03-24T13:44:34.911Z,24.63
2018-03-24T13:47:00.649Z,24.23
2018-03-24T13:49:26.386Z,24.60
2018-03-24T13:51:52.118Z,26.90
2018-03-24T13:54:17.901Z,28.93
2018-03-24T13:56:43.654Z,31.57
2018-03-24T13:59:09.393Z,26.10
2018-03-24T14:01:35.121Z,28.27
2018-03-24T14:04:01.070Z,26.80
2018-03-24T14:06:26.760Z,26.73
2018-03-24T14:08:52.478Z,27.20
2018-03-24T14:11:18.206Z,29.27
2018-03-24T14:13:43.942Z,29.73
2018-03-24T14:16:09.679Z,28.87
2018-03-24T14:18:35.410Z,30.00
2018-03-24T14:21:01.136Z,30.10
2018-03-24T14:23:26.867Z,28.33
2018-03-24T14:25:52.589Z,29.10
2018-03-24T14:28:18.332Z,29.50
2018-03-24T14:30:44.068Z,29.37
2018-03-24T14:33:09.799Z,28.47
2018-03-24T14:35:35.543Z,29.17
2018-03-24T14:38:01.300Z,28.93
2018-03-24T14:40:27.030Z,29.43
2018-03-24T14:42:52.765Z,27.63
2018-03-24T14:45:18.494Z,27.50
2018-03-24T14:47:44.236Z,29.30
2018-03-24T14:50:09.954Z,29.50
2018-03-24T14:52:35.718Z,28.67
2018-03-24T14:55:01.451Z,29.03
2018-03-24T14:57:27.174Z,29.27
2018-03-24T14:59:52.901Z,29.20
2018-03-24T15:02:18.618Z,29.87
2018-03-24T15:04:44.362Z,30.47
2018-03-24T15:07:10.097Z,29.90
2018-03-24T15:09:35.843Z,30.93
2018-03-24T15:12:01.570Z,29.63
2018-03-24T15:14:27.307Z,28.57
2018-03-24T15:16:53.041Z,29.53
2018-03-24T15:19:18.779Z,28.13
2018-03-24T15:21:45.408Z,28.77
2018-03-24T15:24:11.259Z,27.90
2018-03-24T15:26:37.077Z,29.17
2018-03-24T15:29:15.322Z,29.27
2018-03-24T15:31:53.707Z,28.57
2018-03-24T15:34:31.700Z,29.33
2018-03-24T15:36:57.430Z,32.10
2018-03-24T15:39:23.364Z,29.57
2018-03-24T15:41:49.087Z,28.50
2018-03-24T15:44:14.817Z,27.13
2018-03-24T15:46:40.543Z,29.33
2018-03-24T15:49:06.440Z,29.20
2018-03-24T15:51:32.296Z,29.67
2018-03-24T15:53:58.266Z,29.13
2018-03-24T15:56:23.998Z,30.17
2018-03-24T15:58:49.754Z,30.27
2018-03-24T16:01:15.477Z,30.37
2018-03-24T16:03:41.198Z,30.97
2018-03-24T16:06:06.930Z,29.53
2018-03-24T16:08:32.650Z,28.93
2018-03-24T16:10:58.378Z,29.20
2018-03-24T16:13:24.101Z,31.10
2018-03-24T16:15:49.842Z,30.10
2018-03-24T16:18:15.582Z,30.77
2018-03-24T16:20:41.322Z,29.90
2018-03-24T16:23:07.059Z,36.70
2018-03-24T16:25:32.803Z,37.83
2018-03-24T16:27:58.543Z,34.47
2018-03-24T16:30:24.275Z,31.13
2018-03-24T16:32:50.001Z,31.63
2018-03-24T16:35:15.735Z,30.43
2018-03-24T16:37:41.457Z,31.67
2018-03-24T16:40:07.187Z,30.10
2018-03-24T16:42:32.922Z,29.67
2018-03-24T16:44:58.646Z,29.33
2018-03-24T16:47:24.381Z,28.83
2018-03-24T16:49:50.122Z,29.80
2018-03-24T16:52:15.869Z,30.10
2018-03-24T16:54:41.596Z,30.57
2018-03-24T16:57:07.342Z,29.40
2018-03-24T16:59:33.083Z,29.87
2018-03-24T17:01:58.834Z,28.67
2018-03-24T17:04:24.574Z,29.40
2018-03-24T17:06:50.329Z,29.07
2018-03-24T17:09:16.065Z,27.83
2018-03-24T17:11:41.825Z,28.23
2018-03-24T17:14:07.536Z,29.20
2018-03-24T17:16:33.276Z,28.80
2018-03-24T17:18:59.010Z,29.67
2018-03-24T17:21:24.746Z,29.10
2018-03-24T17:23:50.483Z,28.77
2018-03-24T17:26:16.239Z,29.50
2018-03-24T17:28:41.967Z,28.03
2018-03-24T17:31:07.730Z,27.87
2018-03-24T17:33:33.477Z,27.57
2018-03-24T17:35:59.211Z,28.13
2018-03-24T17:38:24.968Z,28.40
2018-03-24T17:40:50.720Z,29.10
2018-03-24T17:43:16.478Z,28.57
2018-03-24T17:45:42.222Z,29.70
2018-03-24T17:48:07.979Z,28.60
2018-03-24T17:50:33.732Z,28.03
2018-03-24T17:52:59.484Z,27.67
2018-03-24T17:55:25.224Z,31.87
2018-03-24T17:57:50.967Z,29.20
2018-03-24T18:00:16.716Z,28.27
2018-03-24T18:02:42.454Z,26.97
2018-03-24T18:05:08.209Z,27.77
2018-03-24T18:07:34.172Z,29.37
2018-03-24T18:09:59.953Z,28.43
2018-03-24T18:12:25.678Z,28.40
2018-03-24T18:14:51.407Z,25.77
2018-03-24T18:17:17.155Z,26.43
2018-03-24T18:19:42.886Z,24.83
2018-03-24T18:22:08.641Z,23.80
2018-03-24T18:24:34.386Z,24.80
2018-03-24T18:27:00.132Z,25.30
2018-03-24T18:29:25.875Z,24.57
2018-03-24T18:31:51.634Z,25.17
2018-03-24T18:34:17.384Z,24.30
2018-03-24T18:36:43.142Z,25.13
2018-03-24T18:39:08.902Z,24.80
2018-03-24T18:41:34.630Z,25.27
2018-03-24T18:44:00.372Z,25.00
2018-03-24T18:46:26.127Z,27.43
2018-03-24T18:48:51.915Z,30.13
2018-03-24T18:51:17.657Z,26.73
2018-03-24T18:53:43.449Z,26.53
2018-03-24T18:56:09.214Z,25.43
2018-03-24T18:58:34.955Z,24.90
2018-03-24T19:01:00.690Z,27.30
2018-03-24T19:03:26.464Z,26.80
2018-03-24T19:05:52.247Z,27.93
2018-03-24T19:08:18.009Z,28.17
2018-03-24T19:10:43.775Z,28.77
2018-03-24T19:13:09.540Z,28.53
2018-03-24T19:15:35.279Z,27.67
2018-03-24T19:18:01.023Z,27.87
2018-03-24T19:20:26.774Z,26.37
2018-03-24T19:22:52.502Z,27.47
2018-03-24T19:25:18.247Z,27.20
2018-03-24T19:27:43.975Z,24.90
2018-03-24T19:30:09.745Z,25.37
2018-03-24T19:32:35.495Z,25.10
2018-03-24T19:35:01.248Z,23.53
2018-03-24T19:37:27.073Z,21.97
2018-03-24T19:39:52.770Z,24.27
2018-03-24T19:42:18.495Z,23.57
2018-03-24T19:44:44.256Z,22.77
2018-03-24T19:47:09.994Z,24.03
2018-03-24T19:49:35.771Z,22.77
2018-03-24T19:52:01.506Z,22.97
2018-03-24T19:54:27.246Z,23.43
2018-03-24T19:56:52.970Z,23.73
2018-03-24T19:59:18.702Z,22.63
2018-03-24T20:01:44.437Z,24.23
2018-03-24T20:04:10.174Z,24.17
2018-03-24T20:06:35.919Z,23.80
2018-03-24T20:09:01.652Z,23.60
2018-03-24T20:11:27.386Z,26.20
2018-03-24T20:13:53.162Z,23.57
2018-03-24T20:16:18.898Z,24.43
2018-03-24T20:18:44.633Z,24.83
2018-03-24T20:21:10.383Z,24.77
2018-03-24T20:23:36.122Z,24.67
2018-03-24T20:26:01.886Z,25.23
2018-03-24T20:28:27.638Z,25.17
2018-03-24T20:30:53.391Z,26.30
2018-03-24T20:33:19.123Z,24.80
2018-03-24T20:35:44.871Z,24.83
2018-03-24T20:38:10.607Z,25.10
2018-03-24T20:40:36.360Z,23.57
2018-03-24T20:43:02.086Z,25.23
2018-03-24T20:45:27.822Z,24.63
2018-03-24T20:47:53.565Z,25.00
2018-03-24T20:50:19.310Z,25.40
2018-03-24T20:52:45.038Z,25.17
2018-03-24T20:55:10.782Z,26.93
2018-03-24T20:57:36.515Z,24.57
2018-03-24T21:00:02.284Z,26.67
2018-03-24T21:02:28.040Z,26.00
2018-03-24T21:04:53.776Z,26.20
2018-03-24T21:07:19.533Z,26.57
2018-03-24T21:09:45.275Z,25.67
2018-03-24T21:12:11.088Z,36.13
2018-03-24T21:14:36.823Z,41.60
2018-03-24T21:17:02.579Z,30.57
2018-03-24T21:19:28.549Z,28.63
2018-03-24T21:21:54.322Z,26.90
2018-03-24T21:24:20.122Z,26.33
2018-03-24T21:26:45.825Z,27.90
2018-03-24T21:29:11.566Z,27.83
2018-03-24T21:31:37.313Z,27.23
2018-03-24T21:34:03.058Z,26.53
2018-03-24T21:36:28.790Z,26.63
2018-03-24T21:38:54.527Z,26.97
2018-03-24T21:41:20.278Z,26.73
2018-03-24T21:43:46.023Z,25.30
2018-03-24T21:46:11.774Z,26.50
2018-03-24T21:48:37.539Z,24.40
2018-03-24T21:51:03.312Z,25.40
2018-03-24T21:53:29.071Z,24.63
2018-03-24T21:55:54.808Z,25.90
2018-03-24T21:58:20.558Z,24.97
2018-03-24T22:00:46.305Z,25.73
2018-03-24T22:03:12.060Z,25.97
2018-03-24T22:05:37.795Z,26.43
2018-03-24T22:08:03.538Z,25.57
2018-03-24T22:10:29.270Z,26.13
2018-03-24T22:12:55.065Z,29.07
2018-03-24T22:15:21.028Z,27.87
2018-03-24T22:17:46.777Z,28.20
2018-03-24T22:20:12.501Z,27.10
2018-03-24T22:22:38.243Z,26.93
2018-03-24T22:25:03.978Z,28.90
2018-03-24T22:27:29.730Z,28.77
2018-03-24T22:29:55.467Z,28.33
2018-03-24T22:32:21.222Z,28.93
2018-03-24T22:34:46.965Z,27.93
2018-03-24T22:37:12.702Z,26.83
2018-03-24T22:39:38.486Z,27.00
2018-03-24T22:42:04.204Z,26.33
2018-03-24T22:44:29.938Z,25.17
2018-03-24T22:46:55.674Z,24.83
2018-03-24T22:49:21.411Z,23.20
2018-03-24T22:51:47.134Z,26.47
2018-03-24T22:54:12.862Z,23.07
2018-03-24T22:56:38.582Z,22.97
2018-03-24T22:59:04.323Z,22.13
2018-03-24T23:01:30.048Z,23.00
2018-03-24T23:03:55.781Z,21.63
2018-03-24T23:06:21.502Z,23.27
2018-03-24T23:08:47.251Z,21.03
2018-03-24T23:11:12.982Z,21.73
2018-03-24T23:13:38.726Z,21.40
2018-03-24T23:16:04.454Z,19.63
2018-03-24T23:18:30.189Z,19.63
2018-03-24T23:20:55.949Z,18.90
2018-03-24T23:23:21.692Z,18.17
2018-03-24T23:25:47.421Z,17.40
2018-03-24T23:28:13.145Z,18.37
2018-03-24T23:30:38.864Z,18.43
2018-03-24T23:33:04.597Z,18.20
2018-03-24T23:35:30.326Z,17.73
2018-03-24T23:37:56.050Z,18.07
2018-03-24T23:40:21.797Z,17.50
2018-03-24T23:42:47.534Z,16.70
2018-03-24T23:45:13.278Z,17.77
2018-03-24T23:47:39.030Z,17.13
2018-03-24T23:50:04.783Z,16.83
2018-03-24T23:52:30.554Z,17.53
2018-03-24T23:54:56.254Z,18.30
2018-03-24T23:57:21.991Z,17.13
2018-03-24T23:59:47.742Z,18.73
